Time;durP1;ratioP1;P1;durP2;ratioP2;P2;SDS_P1;SDS_P2;PMS_P1;PMS_P2;Temp;Humidity;BMP_temperature;BMP_pressure;BME280_temperature;BME280_humidity;BME280_pressure;Samples;Min_cycle;Max_cycle;Signal;HPM_P1;HPM_P2
2023/04/09 00:00:41;;;;;;;13.80;9.32;;;;;;;6.51;73.44;99787.78;4948653;28;20100;-92
2023/04/09 00:03:06;;;;;;;15.80;10.32;;;;;;;6.47;73.85;99792.78;4963946;28;20027;-92
2023/04/09 00:05:32;;;;;;;13.18;8.63;;;;;;;6.66;73.30;99788.97;4949037;28;20038;-92
2023/04/09 00:07:57;;;;;;;14.45;8.32;;;;;;;6.74;72.80;99782.44;4948923;28;20034;-92
2023/04/09 00:10:23;;;;;;;11.73;7.57;;;;;;;6.59;73.26;99779.41;4948406;28;20034;-92
2023/04/09 00:12:48;;;;;;;15.30;9.05;;;;;;;6.55;73.62;99786.28;4948521;28;20022;-91
2023/04/09 00:15:14;;;;;;;13.95;9.55;;;;;;;6.45;74.06;99785.00;4948472;28;20022;-92
2023/04/09 00:17:40;;;;;;;13.00;8.73;;;;;;;6.42;74.06;99790.78;4948159;28;20042;-91
2023/04/09 00:20:06;;;;;;;15.82;9.38;;;;;;;6.37;74.62;99787.19;4948031;28;20030;-92
2023/04/09 00:22:32;;;;;;;14.30;8.75;;;;;;;6.35;74.29;99787.44;4948306;28;20030;-92
2023/04/09 00:24:57;;;;;;;13.73;9.45;;;;;;;6.41;74.12;99785.66;4948148;28;20041;-93
2023/04/09 00:27:22;;;;;;;12.25;8.57;;;;;;;6.34;74.58;99793.81;4948564;28;20034;-91
2023/04/09 00:29:48;;;;;;;18.05;9.27;;;;;;;6.40;74.52;99789.41;4948431;28;20030;-91
2023/04/09 00:32:13;;;;;;;14.80;9.13;;;;;;;6.49;74.00;99798.72;4951620;28;20018;-92
2023/04/09 00:34:39;;;;;;;12.52;8.55;;;;;;;6.45;73.98;99794.88;4952358;28;20412;-93
2023/04/09 00:37:05;;;;;;;13.75;8.45;;;;;;;6.66;73.12;99802.34;4951690;28;20037;-92
2023/04/09 00:39:30;;;;;;;13.45;8.73;;;;;;;6.63;73.34;99789.41;4951858;28;20037;-93
2023/04/09 00:42:01;;;;;;;14.38;8.10;;;;;;;6.56;73.88;99787.91;4951533;28;20042;-92
2023/04/09 00:44:26;;;;;;;12.82;8.48;;;;;;;6.56;74.20;99787.91;4953481;28;20037;-92
2023/04/09 00:46:53;;;;;;;11.60;8.18;;;;;;;6.68;73.50;99791.38;4951967;28;20062;-91
2023/04/09 00:49:18;;;;;;;13.32;8.27;;;;;;;6.79;72.67;99801.28;4952448;28;20019;-92
2023/04/09 00:51:44;;;;;;;12.23;8.35;;;;;;;6.65;73.39;99792.69;4952055;28;20026;-92
2023/04/09 00:54:09;;;;;;;12.50;8.20;;;;;;;6.61;73.60;99786.16;4952534;28;20488;-92
2023/04/09 00:56:36;;;;;;;15.85;9.23;;;;;;;6.67;73.62;99792.44;4951356;28;20057;-93
2023/04/09 00:59:01;;;;;;;15.52;8.68;;;;;;;6.68;73.39;99794.06;4952603;28;20039;-92
2023/04/09 01:01:27;;;;;;;13.00;7.45;;;;;;;6.68;72.98;99786.03;4952341;28;20034;-92
2023/04/09 01:03:52;;;;;;;13.35;8.02;;;;;;;6.57;73.44;99789.53;4952651;28;20543;-92
2023/04/09 01:06:34;;;;;;;14.80;8.45;;;;;;;6.44;73.72;99779.88;4952755;28;20052;-92
2023/04/09 01:09:20;;;;;;;;;;;;;;;6.47;74.17;99793.63;4968895;28;20069;-92
2023/04/09 01:11:55;;;;;;;12.57;7.68;;;;;;;6.33;74.30;99794.03;4983347;28;19920;-92
2023/04/09 01:14:28;;;;;;;12.77;8.23;;;;;;;6.27;74.36;99791.25;4962794;28;20052;-92
2023/04/09 01:16:56;;;;;;;15.20;7.78;;;;;;;6.15;74.13;99778.91;4952542;28;20046;-91
2023/04/09 01:19:31;;;;;;;10.82;7.70;;;;;;;6.18;74.83;99786.44;4951977;28;20045;-93
2023/04/09 01:21:57;;;;;;;14.30;8.45;;;;;;;6.04;75.00;99781.31;4969038;28;20129;-92
2023/04/09 01:24:50;;;;;;;13.25;8.15;;;;;;;6.07;75.45;99788.06;4952164;28;20034;-92
2023/04/09 01:27:16;;;;;;;18.50;8.27;;;;;;;5.92;75.62;99787.66;4967550;28;20034;-92
2023/04/09 01:29:45;;;;;;;14.32;8.82;;;;;;;5.85;75.61;99788.56;4953350;28;20026;-91
2023/04/09 01:32:10;;;;;;;12.68;8.18;;;;;;;5.84;75.36;99788.78;4952294;28;20034;-93
2023/04/09 01:34:37;;;;;;;11.73;8.25;;;;;;;5.85;75.20;99787.72;4951556;28;20033;-90
2023/04/09 01:37:02;;;;;;;15.07;9.00;;;;;;;5.77;75.61;99772.00;4951482;28;20034;-92
2023/04/09 01:39:28;;;;;;;11.27;7.07;;;;;;;5.88;74.81;99788.09;4951832;28;20034;-91
2023/04/09 01:41:53;;;;;;;11.18;7.68;;;;;;;5.76;75.43;99786.41;4951118;28;20034;-91
2023/04/09 01:44:19;;;;;;;11.27;7.43;;;;;;;5.69;75.68;99783.84;4967894;28;20038;-93
2023/04/09 01:46:48;;;;;;;12.80;7.10;;;;;;;5.62;75.56;99791.94;4951469;28;20030;-91
2023/04/09 01:49:13;;;;;;;11.48;6.85;;;;;;;5.51;75.14;99773.19;4952711;28;20065;-92
2023/04/09 01:51:39;;;;;;;12.32;7.32;;;;;;;5.40;75.83;99783.59;4951145;28;20054;-91
2023/04/09 01:54:04;;;;;;;10.75;6.88;;;;;;;5.45;76.03;99783.72;4951347;28;20030;-92
2023/04/09 01:56:43;;;;;;;11.85;7.75;;;;;;;5.43;75.49;99780.44;4951934;28;20050;-93
2023/04/09 01:59:09;;;;;;;11.07;6.75;;;;;;;5.40;76.11;99783.59;4962805;28;20129;-92
2023/04/09 02:01:46;;;;;;;9.90;6.97;;;;;;;5.39;75.76;99775.78;4950976;28;20061;-92
2023/04/09 02:04:33;;;;;;;11.15;6.63;;;;;;;5.24;76.28;99774.31;4951436;28;20038;-92
2023/04/09 02:07:05;;;;;;;9.80;7.20;;;;;;;5.26;76.16;99790.13;4968087;28;20069;-92
2023/04/09 02:09:31;;;;;;;9.23;6.80;;;;;;;5.31;76.17;99792.91;4951121;28;20117;-91
2023/04/09 02:11:57;;;;;;;13.40;7.75;;;;;;;5.41;76.28;99792.41;4951447;28;20101;-91
2023/04/09 02:14:23;;;;;;;10.82;7.57;;;;;;;5.47;75.61;99792.31;4951182;28;20054;-92
2023/04/09 02:16:48;;;;;;;15.07;7.70;;;;;;;5.47;75.88;99786.16;4951757;28;20034;-91
2023/04/09 02:19:14;;;;;;;10.30;7.20;;;;;;;5.49;75.82;99788.63;4950594;28;20030;-92
2023/04/09 02:21:39;;;;;;;12.40;7.60;;;;;;;5.43;75.62;99780.44;4950566;28;20118;-92
2023/04/09 02:24:05;;;;;;;11.45;6.95;;;;;;;5.31;75.23;99776.91;4949532;28;20030;-92
2023/04/09 02:26:30;;;;;;;11.60;6.47;;;;;;;5.23;76.14;99798.59;4958743;28;20062;-92
2023/04/09 02:28:56;;;;;;;10.85;6.95;;;;;;;5.04;75.56;99789.72;4950266;28;20041;-92
2023/04/09 02:31:21;;;;;;;12.45;7.13;;;;;;;5.01;76.36;99791.00;4949718;28;20030;-91
2023/04/09 02:33:47;;;;;;;13.55;7.90;;;;;;;4.92;76.08;99787.00;4950355;28;20038;-91
2023/04/09 02:36:12;;;;;;;11.70;6.93;;;;;;;4.93;76.60;99806.50;4950113;28;20069;-92
2023/04/09 02:38:42;;;;;;;13.02;7.03;;;;;;;4.92;76.54;99811.00;4950379;28;20037;-91
2023/04/09 02:41:07;;;;;;;10.95;7.43;;;;;;;4.97;76.01;99802.34;4950221;28;20440;-91
2023/04/09 02:43:33;;;;;;;11.80;7.32;;;;;;;4.87;77.02;99794.84;4949679;28;20120;-91
2023/04/09 02:45:58;;;;;;;10.27;6.90;;;;;;;4.92;76.16;99804.84;4949722;28;20496;-91
2023/04/09 02:48:24;;;;;;;9.38;6.55;;;;;;;5.03;76.57;99798.78;4954921;28;20561;-90
2023/04/09 02:50:49;;;;;;;12.15;6.75;;;;;;;5.08;76.08;99806.94;4963964;28;20050;-92
2023/04/09 02:53:15;;;;;;;12.93;8.25;;;;;;;4.99;76.06;99784.25;4950189;28;20026;-91
2023/04/09 02:55:40;;;;;;;14.63;7.88;;;;;;;5.00;76.15;99792.06;4962872;28;20054;-91
2023/04/09 02:58:06;;;;;;;14.98;7.55;;;;;;;4.74;75.55;99801.13;4949594;28;20045;-91
2023/04/09 03:00:31;;;;;;;11.65;7.03;;;;;;;4.71;75.62;99816.75;4949613;28;20045;-91
2023/04/09 03:02:57;;;;;;;11.57;7.45;;;;;;;4.54;76.34;99801.28;4949490;28;20042;-91
2023/04/09 03:05:22;;;;;;;11.30;6.65;;;;;;;4.54;76.35;99827.94;4950539;28;20045;-91
2023/04/09 03:07:48;;;;;;;10.68;7.18;;;;;;;4.57;75.98;99819.53;4964782;28;20038;-92
2023/04/09 03:10:14;;;;;;;10.60;7.28;;;;;;;4.41;76.56;99804.06;4965619;28;20493;-91
2023/04/09 03:12:39;;;;;;;10.60;7.25;;;;;;;4.30;75.74;99808.25;4964775;28;20034;-91
2023/04/09 03:15:05;;;;;;;11.55;6.63;;;;;;;4.30;76.64;99812.78;4965768;28;20033;-91
2023/04/09 03:17:31;;;;;;;10.63;7.22;;;;;;;4.12;77.04;99810.84;4965496;28;20063;-91
2023/04/09 03:19:56;;;;;;;12.27;7.05;;;;;;;4.09;76.59;99808.59;4965418;28;20559;-92
2023/04/09 03:22:22;;;;;;;10.25;6.40;;;;;;;4.22;76.30;99813.84;4964947;28;20068;-92
2023/04/09 03:24:47;;;;;;;12.90;6.78;;;;;;;4.30;76.63;99823.44;4966027;28;20034;-92
2023/04/09 03:27:13;;;;;;;12.40;6.88;;;;;;;4.18;76.71;99825.97;4965891;28;20038;-91
2023/04/09 03:29:38;;;;;;;11.35;6.80;;;;;;;4.05;76.04;99824.22;4964022;28;20065;-91
2023/04/09 03:32:04;;;;;;;10.82;6.80;;;;;;;4.07;76.07;99835.47;4966029;28;20034;-91
2023/04/09 03:34:29;;;;;;;9.48;6.60;;;;;;;3.94;76.41;99828.34;4965664;28;20073;-91
2023/04/09 03:36:55;;;;;;;10.20;6.97;;;;;;;4.00;76.89;99840.81;4965756;28;20058;-91
2023/04/09 03:39:20;;;;;;;10.75;7.47;;;;;;;3.89;77.18;99822.06;4964863;28;20069;-92
2023/04/09 03:41:46;;;;;;;11.63;7.20;;;;;;;3.88;76.98;99839.91;4964694;28;20037;-92
2023/04/09 03:44:11;;;;;;;14.23;8.07;;;;;;;3.81;77.63;99831.91;4960873;28;20030;-91
2023/04/09 03:46:36;;;;;;;11.98;7.90;;;;;;;3.82;77.28;99838.88;4948318;28;20034;-91
2023/04/09 03:49:02;;;;;;;15.95;8.30;;;;;;;3.89;77.12;99846.03;4949281;28;20045;-91
2023/04/09 03:51:27;;;;;;;13.13;7.93;;;;;;;3.95;77.10;99837.19;4949445;28;20030;-91
2023/04/09 03:53:53;;;;;;;11.73;7.60;;;;;;;3.97;76.95;99838.59;4965299;28;20031;-91
2023/04/09 03:56:18;;;;;;;11.48;7.78;;;;;;;4.01;77.18;99839.81;4966117;28;20097;-91
2023/04/09 03:58:44;;;;;;;18.40;8.07;;;;;;;4.08;77.78;99842.44;4965022;28;20033;-91
2023/04/09 04:01:09;;;;;;;11.57;7.55;;;;;;;4.05;76.62;99835.69;4964486;28;20484;-91
2023/04/09 04:03:35;;;;;;;10.48;7.20;;;;;;;4.00;77.66;99838.16;4965136;28;20030;-91
2023/04/09 04:06:01;;;;;;;12.25;8.00;;;;;;;4.08;77.10;99836.28;4965208;28;20543;-92
2023/04/09 04:08:27;;;;;;;17.30;8.68;;;;;;;4.04;77.54;99844.69;4965015;28;20034;-91
2023/04/09 04:10:52;;;;;;;14.48;8.63;;;;;;;4.02;77.31;99840.63;4960002;28;20559;-91
2023/04/09 04:13:18;;;;;;;14.90;7.32;;;;;;;4.19;76.78;99833.75;4949347;28;20041;-91
2023/04/09 04:15:43;;;;;;;15.32;8.30;;;;;;;4.40;76.33;99834.41;4948961;28;20034;-92
2023/04/09 04:18:09;;;;;;;12.18;7.45;;;;;;;4.40;76.01;99837.09;4947587;28;20030;-90
2023/04/09 04:20:35;;;;;;;12.90;7.90;;;;;;;4.40;75.95;99831.75;4949340;28;20066;-91
2023/04/09 04:23:00;;;;;;;16.52;8.63;;;;;;;4.27;76.21;99829.19;4949249;28;20519;-90
2023/04/09 04:25:26;;;;;;;17.33;8.48;;;;;;;4.38;76.44;99836.47;4948422;28;20038;-91
2023/04/09 04:27:51;;;;;;;18.10;10.05;;;;;;;4.38;75.97;99834.66;4949018;28;20062;-91
2023/04/09 04:30:17;;;;;;;16.45;8.55;;;;;;;4.43;75.58;99847.34;4947662;28;20030;-91
2023/04/09 04:32:42;;;;;;;11.65;8.38;;;;;;;4.33;75.90;99833.66;4948921;28;20180;-91
2023/04/09 04:35:08;;;;;;;14.20;9.23;;;;;;;4.49;75.75;99851.00;4948236;28;20060;-91
2023/04/09 04:37:33;;;;;;;13.75;9.07;;;;;;;4.37;76.19;99835.66;4949211;28;20030;-91
2023/04/09 04:40:04;;;;;;;14.85;9.07;;;;;;;4.45;75.86;99851.41;4948215;28;20031;-93
2023/04/09 04:42:29;;;;;;;12.38;8.55;;;;;;;4.52;75.84;99842.53;4949208;28;20041;-93
2023/04/09 04:44:55;;;;;;;15.50;8.27;;;;;;;4.58;75.47;99842.50;4954373;28;20038;-92
2023/04/09 04:47:20;;;;;;;10.18;8.10;;;;;;;4.59;75.36;99833.47;4956993;28;20034;-92
2023/04/09 04:49:46;;;;;;;15.07;9.18;;;;;;;4.64;75.50;99841.63;4948707;28;20034;-93
2023/04/09 04:52:11;;;;;;;15.77;10.32;;;;;;;4.56;75.81;99836.56;4958188;28;20038;-92
2023/04/09 04:54:37;;;;;;;12.55;8.75;;;;;;;4.67;75.33;99840.38;4962692;28;20030;-92
2023/04/09 04:57:02;;;;;;;12.40;8.15;;;;;;;4.65;74.90;99853.13;4967727;28;20038;-91
2023/04/09 04:59:28;;;;;;;11.98;7.90;;;;;;;4.66;74.63;99844.06;4968726;28;20086;-91
2023/04/09 05:01:53;;;;;;;14.88;8.25;;;;;;;4.81;74.90;99867.75;4968527;28;20034;-91
2023/04/09 05:04:19;;;;;;;14.07;8.40;;;;;;;4.77;74.36;99854.06;4967170;28;20041;-91
2023/04/09 05:06:44;;;;;;;13.52;9.55;;;;;;;4.81;75.03;99857.06;4967239;28;20034;-91
2023/04/09 05:09:10;;;;;;;20.25;9.48;;;;;;;4.81;74.93;99859.75;4967769;28;20030;-91
2023/04/09 05:11:35;;;;;;;17.95;9.88;;;;;;;4.99;75.29;99857.13;4967637;28;20026;-92
2023/04/09 05:14:01;;;;;;;19.05;10.07;;;;;;;5.17;74.64;99867.03;4967619;28;20029;-91
2023/04/09 05:16:26;;;;;;;17.95;10.45;;;;;;;5.22;74.89;99871.69;4967992;28;20042;-90
2023/04/09 05:18:52;;;;;;;15.90;10.18;;;;;;;5.22;74.97;99851.13;4971868;28;20034;-91
2023/04/09 05:21:17;;;;;;;17.75;10.68;;;;;;;5.32;74.88;99865.84;4971372;28;20037;-91
2023/04/09 05:23:43;;;;;;;15.85;9.55;;;;;;;5.39;73.88;99864.72;4963115;28;20034;-90
2023/04/09 05:26:08;;;;;;;14.15;8.40;;;;;;;5.40;72.94;99853.00;4951447;28;20489;-89
2023/04/09 05:28:34;;;;;;;12.45;8.50;;;;;;;5.50;72.11;99854.34;4956978;28;20030;-90
2023/04/09 05:30:59;;;;;;;17.55;9.65;;;;;;;5.63;72.60;99855.00;4951996;28;20038;-90
2023/04/09 05:33:25;;;;;;;17.13;10.05;;;;;;;5.77;72.54;99868.19;4952012;28;20034;-89
2023/04/09 05:35:50;;;;;;;20.13;11.40;;;;;;;5.78;72.57;99862.63;4950768;28;20044;-90
2023/04/09 05:38:16;;;;;;;15.43;10.02;;;;;;;5.78;71.99;99861.81;4951060;28;20084;-91
2023/04/09 05:40:43;;;;;;;15.88;9.80;;;;;;;5.95;71.66;99864.72;4951313;28;20022;-91
2023/04/09 05:43:08;;;;;;;17.08;10.05;;;;;;;6.01;72.31;99871.81;4951255;28;20040;-91
2023/04/09 05:45:34;;;;;;;13.85;9.85;;;;;;;6.07;71.60;99853.03;4950273;28;20035;-91
2023/04/09 05:48:00;;;;;;;16.48;10.75;;;;;;;6.15;71.46;99864.44;4951818;28;20039;-91
2023/04/09 05:50:26;;;;;;;27.88;15.35;;;;;;;6.23;71.72;99864.94;4951994;28;20073;-91
2023/04/09 05:52:51;;;;;;;17.70;10.45;;;;;;;6.30;71.11;99848.00;4951056;28;20488;-90
2023/04/09 05:55:17;;;;;;;13.98;9.45;;;;;;;6.52;70.57;99861.66;4954297;28;20037;-91
2023/04/09 05:57:44;;;;;;;17.95;10.02;;;;;;;6.52;69.51;99842.94;4951443;28;20061;-91
2023/04/09 06:00:10;;;;;;;13.77;9.48;;;;;;;6.73;69.33;99862.97;4964993;28;20042;-93
2023/04/09 06:02:35;;;;;;;12.98;9.60;;;;;;;6.78;68.29;99858.53;4977455;28;20053;-91
2023/04/09 06:05:01;;;;;;;14.88;10.98;;;;;;;6.69;68.59;99843.88;4951242;28;20042;-89
2023/04/09 06:07:27;;;;;;;16.92;10.98;;;;;;;6.89;68.06;99854.25;4952031;28;20105;-92
2023/04/09 06:09:53;;;;;;;18.30;10.57;;;;;;;7.01;67.46;99860.41;4952239;28;20038;-90
2023/04/09 06:12:19;;;;;;;19.27;11.23;;;;;;;7.15;67.11;99849.47;4952624;28;20083;-91
2023/04/09 06:14:47;;;;;;;15.75;9.65;;;;;;;7.29;65.80;99853.53;4952703;28;20041;-91
2023/04/09 06:17:12;;;;;;;21.77;11.20;;;;;;;7.45;65.30;99850.13;4952541;28;20038;-91
2023/04/09 06:19:38;;;;;;;16.23;10.50;;;;;;;7.54;64.96;99853.25;4953791;28;20034;-92
2023/04/09 06:22:04;;;;;;;19.40;10.40;;;;;;;7.76;64.70;99866.00;4951484;28;20046;-93
2023/04/09 06:24:31;;;;;;;15.32;10.10;;;;;;;7.66;64.60;99858.59;4952048;28;20034;-93
2023/04/09 06:26:56;;;;;;;13.52;9.93;;;;;;;7.74;64.31;99857.38;4951065;28;20137;-92
2023/04/09 06:29:22;;;;;;;18.38;9.48;;;;;;;7.81;63.94;99858.09;4951514;28;20035;-92
2023/04/09 06:31:47;;;;;;;18.10;10.75;;;;;;;7.95;64.08;99855.91;4952072;28;20096;-92
2023/04/09 06:34:13;;;;;;;17.20;10.02;;;;;;;7.91;63.80;99855.59;4953207;28;20021;-92
2023/04/09 06:36:39;;;;;;;14.48;10.15;;;;;;;8.19;62.96;99856.66;4957100;28;20029;-92
2023/04/09 06:39:05;;;;;;;14.75;8.85;;;;;;;8.36;61.74;99862.03;4967988;28;20031;-90
2023/04/09 06:41:31;;;;;;;13.18;8.80;;;;;;;8.38;61.38;99854.56;4951011;28;20034;-91
2023/04/09 06:43:57;;;;;;;15.23;8.73;;;;;;;8.60;60.97;99854.72;4951248;28;20042;-91
2023/04/09 06:46:22;;;;;;;15.70;8.93;;;;;;;8.74;60.21;99847.97;4983773;28;20030;-91
2023/04/09 06:48:48;;;;;;;13.23;8.43;;;;;;;8.90;59.10;99847.13;4976005;28;20037;-91
2023/04/09 06:51:14;;;;;;;11.52;8.40;;;;;;;9.02;59.27;99846.22;4950108;28;20045;-93
2023/04/09 06:53:39;;;;;;;15.57;8.90;;;;;;;9.10;59.58;99848.47;4951717;28;20026;-93
2023/04/09 06:56:06;;;;;;;13.95;8.70;;;;;;;9.22;58.21;99843.81;4961968;28;20050;-92
2023/04/09 06:58:31;;;;;;;12.38;8.27;;;;;;;9.39;56.01;99845.66;4950808;28;20053;-92
2023/04/09 07:00:57;;;;;;;12.57;8.15;;;;;;;9.56;55.85;99846.41;4949950;28;20065;-91
2023/04/09 07:03:23;;;;;;;18.88;9.18;;;;;;;9.75;54.69;99835.34;4951001;28;20460;-91
2023/04/09 07:05:49;;;;;;;23.63;12.18;;;;;;;9.94;53.59;99841.19;4949891;28;20479;-91
2023/04/09 07:08:14;;;;;;;21.35;12.93;;;;;;;10.02;53.25;99832.66;4951358;28;20460;-93
2023/04/09 07:10:40;;;;;;;17.13;9.20;;;;;;;10.02;54.53;99836.19;4951099;28;20041;-91
2023/04/09 07:13:06;;;;;;;14.38;9.23;;;;;;;10.19;52.31;99830.72;4951931;28;20034;-92
2023/04/09 07:15:31;;;;;;;13.52;6.75;;;;;;;10.49;48.39;99840.94;4951299;28;20566;-92
2023/04/09 07:17:57;;;;;;;11.15;8.02;;;;;;;10.58;47.47;99827.81;4950554;28;20034;-93
2023/04/09 07:20:22;;;;;;;9.95;7.32;;;;;;;10.69;48.14;99844.91;4951299;28;20464;-92
2023/04/09 07:22:48;;;;;;;12.18;8.50;;;;;;;10.62;50.19;99825.44;4950341;28;20034;-93
2023/04/09 07:25:14;;;;;;;13.95;7.90;;;;;;;10.84;49.66;99825.34;4950805;28;20057;-92
2023/04/09 07:27:41;;;;;;;12.18;7.88;;;;;;;11.06;49.87;99833.28;4949149;28;20045;-94
2023/04/09 07:30:07;;;;;;;12.70;8.50;;;;;;;11.05;50.13;99827.09;4949118;28;20057;-92
2023/04/09 07:32:32;;;;;;;14.50;7.78;;;;;;;11.27;46.81;99848.53;4949932;28;20480;-92
2023/04/09 07:34:58;;;;;;;14.60;7.35;;;;;;;11.21;46.58;99832.59;4958053;28;20073;-92
2023/04/09 07:37:24;;;;;;;12.27;7.03;;;;;;;11.32;46.03;99828.84;4950285;28;20492;-93
2023/04/09 07:39:50;;;;;;;12.73;7.13;;;;;;;11.48;45.27;99833.25;4966877;28;20090;-92
2023/04/09 07:42:16;;;;;;;12.50;7.32;;;;;;;11.60;45.65;99830.34;4949945;28;20057;-93
2023/04/09 07:44:42;;;;;;;11.70;7.50;;;;;;;11.76;45.42;99841.19;4949094;28;20422;-92
2023/04/09 07:47:08;;;;;;;12.90;7.97;;;;;;;11.71;46.57;99815.00;4950578;28;20121;-92
2023/04/09 07:49:35;;;;;;;12.13;7.78;;;;;;;11.60;47.34;99829.50;4950506;28;20064;-92
2023/04/09 07:52:00;;;;;;;10.07;7.28;;;;;;;11.78;47.42;99826.34;4950111;28;20559;-93
2023/04/09 07:54:27;;;;;;;15.38;7.55;;;;;;;12.06;47.40;99832.41;4949841;28;20042;-93
2023/04/09 07:56:52;;;;;;;11.40;7.00;;;;;;;12.16;48.04;99826.19;4949530;28;20050;-93
2023/04/09 07:59:18;;;;;;;13.73;7.13;;;;;;;12.24;47.66;99828.38;4949204;28;20035;-92
2023/04/09 08:01:44;;;;;;;9.55;5.63;;;;;;;12.38;47.24;99836.75;4950764;28;20034;-93
2023/04/09 08:04:11;;;;;;;6.35;4.75;;;;;;;12.66;47.10;99838.94;4950411;28;20045;-92
2023/04/09 08:06:37;;;;;;;6.10;4.07;;;;;;;12.90;45.14;99843.78;4950668;28;20113;-93
2023/04/09 08:09:02;;;;;;;5.97;4.20;;;;;;;12.93;44.95;99827.03;4949813;28;20091;-93
2023/04/09 08:11:28;;;;;;;6.85;3.75;;;;;;;13.16;44.24;99828.31;4951021;28;20145;-92
2023/04/09 08:13:53;;;;;;;6.38;4.05;;;;;;;13.38;43.66;99825.31;4949663;28;20547;-92
2023/04/09 08:16:20;;;;;;;6.45;4.68;;;;;;;13.51;44.97;99821.22;4950025;28;20076;-93
2023/04/09 08:18:46;;;;;;;6.00;4.40;;;;;;;13.62;45.00;99822.78;4952291;28;20054;-93
2023/04/09 08:21:11;;;;;;;6.05;3.75;;;;;;;13.88;44.87;99831.59;4950129;28;20088;-93
2023/04/09 08:23:38;;;;;;;5.80;4.28;;;;;;;13.70;44.77;99835.75;4949480;28;20496;-91
2023/04/09 08:26:03;;;;;;;6.82;4.35;;;;;;;13.59;45.47;99830.63;4964897;28;20042;-93
2023/04/09 08:28:29;;;;;;;7.47;4.93;;;;;;;13.69;45.70;99825.19;4949496;28;20030;-92
2023/04/09 08:30:54;;;;;;;7.88;4.78;;;;;;;13.59;44.62;99831.44;4949106;28;20038;-92
2023/04/09 08:33:20;;;;;;;6.00;4.45;;;;;;;13.60;44.10;99833.06;4950164;28;20054;-92
2023/04/09 08:35:45;;;;;;;6.53;4.55;;;;;;;13.51;45.13;99830.13;4949099;28;20042;-92
2023/04/09 08:38:11;;;;;;;7.13;4.60;;;;;;;13.49;44.88;99840.44;4950276;28;20038;-93
2023/04/09 08:40:36;;;;;;;6.40;4.90;;;;;;;13.34;46.08;99832.34;4948722;28;20034;-94
2023/04/09 08:43:05;;;;;;;9.10;5.28;;;;;;;13.53;45.47;99825.25;4949812;28;20583;-93
2023/04/09 08:45:31;;;;;;;7.05;4.72;;;;;;;13.63;43.32;99824.38;4949745;28;20129;-92
2023/04/09 08:48:01;;;;;;;5.50;4.28;;;;;;;13.56;42.87;99829.31;4950399;28;20049;-92
2023/04/09 08:50:31;;;;;;;5.45;4.00;;;;;;;13.67;42.83;99836.28;4951035;28;20053;-93
2023/04/09 08:52:57;;;;;;;6.65;4.10;;;;;;;13.70;43.24;99827.63;4968775;28;20030;-93
2023/04/09 08:55:22;;;;;;;4.85;3.47;;;;;;;13.84;41.69;99827.84;4952449;28;20056;-92
2023/04/09 08:57:48;;;;;;;4.88;3.47;;;;;;;13.94;42.81;99827.78;4952712;28;20042;-92
2023/04/09 09:00:13;;;;;;;6.70;3.60;;;;;;;13.98;42.91;99827.22;4953141;28;20108;-93
2023/04/09 09:03:01;;;;;;;4.40;3.17;;;;;;;14.08;38.82;99817.13;4952971;28;20125;-88
2023/04/09 09:05:53;;;;;;;4.47;2.88;;;;;;;14.02;34.58;99820.16;4960086;28;20038;-87
2023/04/09 09:08:25;;;;;;;3.13;2.45;;;;;;;14.10;34.30;99806.81;4964165;28;20134;-88
2023/04/09 09:10:51;;;;;;;4.78;2.70;;;;;;;14.08;34.24;99827.16;4950434;28;20030;-88
2023/04/09 09:13:23;;;;;;;3.42;2.78;;;;;;;14.15;35.10;99827.63;4950447;28;20781;-89
2023/04/09 09:16:12;;;;;;;3.25;2.53;;;;;;;13.88;33.86;99811.81;4965966;28;20492;-88
2023/04/09 09:18:39;;;;;;;3.55;2.40;;;;;;;13.99;33.41;99812.59;4963562;28;20048;-88
2023/04/09 09:21:11;;;;;;;3.70;2.72;;;;;;;14.08;32.46;99809.00;4958026;28;20031;-88
2023/04/09 09:23:37;;;;;;;3.90;2.50;;;;;;;14.25;31.36;99802.38;4982798;28;20026;-88
2023/04/09 09:26:25;;;;;;;3.17;2.45;;;;;;;14.07;32.21;99806.56;4949402;28;20108;-87
2023/04/09 09:28:50;;;;;;;3.83;2.72;;;;;;;14.21;32.84;99798.63;4951239;28;20041;-87
2023/04/09 09:31:17;;;;;;;9.18;3.42;;;;;;;14.33;32.94;99808.00;4949725;28;20420;-87
2023/04/09 09:33:43;;;;;;;5.07;2.55;;;;;;;14.37;31.75;99802.03;4955076;28;20120;-87
2023/04/09 09:36:08;;;;;;;4.32;2.88;;;;;;;14.26;31.67;99791.28;4970525;28;20030;-88
2023/04/09 09:38:55;;;;;;;3.60;2.50;;;;;;;14.53;32.33;99792.69;4970666;28;20554;-87
2023/04/09 09:41:20;;;;;;;4.65;3.30;;;;;;;14.61;31.80;99807.53;4967394;28;20027;-88
2023/04/09 09:43:46;;;;;;;4.00;2.65;;;;;;;14.73;31.18;99787.13;4950298;28;20057;-87
2023/04/09 09:46:11;;;;;;;3.08;2.30;;;;;;;14.70;29.66;99768.69;4950534;28;20100;-87
2023/04/09 09:48:37;;;;;;;3.45;2.33;;;;;;;14.97;30.16;99783.63;4949043;28;20045;-87
2023/04/09 09:51:07;;;;;;;3.30;2.13;;;;;;;15.04;29.56;99789.50;4950260;28;20093;-88
2023/04/09 09:53:33;;;;;;;2.80;2.38;;;;;;;15.21;29.40;99783.63;4951240;28;20041;-88
2023/04/09 09:55:59;;;;;;;3.20;2.60;;;;;;;15.06;30.06;99784.59;4950816;28;20057;-87
2023/04/09 09:58:32;;;;;;;5.28;2.80;;;;;;;15.12;31.08;99783.44;4950447;28;20038;-86
2023/04/09 10:00:58;;;;;;;4.65;2.83;;;;;;;15.25;30.93;99778.41;4949819;28;20038;-87
2023/04/09 10:03:26;;;;;;;3.38;2.63;;;;;;;15.32;28.92;99792.47;4948483;28;20026;-87
2023/04/09 10:05:52;;;;;;;3.45;2.72;;;;;;;15.00;27.79;99780.31;4948743;28;20073;-87
2023/04/09 10:08:19;;;;;;;3.85;2.95;;;;;;;15.14;28.78;99780.44;4950486;28;20572;-86
2023/04/09 10:10:45;;;;;;;3.20;2.60;;;;;;;15.11;28.87;99776.41;4949494;28;20034;-87
2023/04/09 10:13:34;;;;;;;3.88;3.00;;;;;;;15.34;29.04;99788.34;4950348;28;20049;-87
2023/04/09 10:16:00;;;;;;;4.22;2.80;;;;;;;15.31;28.93;99766.41;4954845;28;20030;-87
2023/04/09 10:18:26;;;;;;;3.47;2.80;;;;;;;15.14;28.90;99767.69;4949515;28;20038;-87
2023/04/09 10:21:01;;;;;;;4.07;3.33;;;;;;;15.19;30.26;99758.72;4949691;28;20034;-87
2023/04/09 10:23:35;;;;;;;4.90;3.85;;;;;;;15.45;30.66;99766.53;4949659;28;20061;-87
2023/04/09 10:26:01;;;;;;;3.58;2.40;;;;;;;15.60;29.88;99754.66;4949254;28;20030;-87
2023/04/09 10:28:27;;;;;;;5.63;2.88;;;;;;;15.75;30.69;99777.00;4949220;28;20452;-87
2023/04/09 10:30:53;;;;;;;4.38;3.03;;;;;;;15.72;30.99;99766.72;4948036;28;20030;-87
2023/04/09 10:33:25;;;;;;;3.22;2.53;;;;;;;15.92;30.33;99764.81;4949247;28;20026;-87
2023/04/09 10:35:50;;;;;;;;;;;;;;;15.91;29.95;99761.28;4950159;28;20078;-87
2023/04/09 10:38:16;;;;;;;2.85;2.20;;;;;;;15.75;31.24;99749.06;4982144;28;19909;-85
2023/04/09 10:40:50;;;;;;;4.55;2.70;;;;;;;15.84;31.36;99728.28;4949111;28;20034;-87
2023/04/09 10:43:19;;;;;;;4.68;3.10;;;;;;;16.10;30.95;99728.69;4949058;28;20070;-87
2023/04/09 10:45:47;;;;;;;4.07;2.70;;;;;;;16.26;30.96;99740.09;4948815;28;20033;-87
2023/04/09 10:48:15;;;;;;;4.63;3.08;;;;;;;16.49;30.85;99732.09;4951550;28;20497;-87
2023/04/09 10:50:44;;;;;;;3.17;2.60;;;;;;;16.46;30.00;99736.25;4949147;28;20069;-87
2023/04/09 10:53:23;;;;;;;3.63;2.90;;;;;;;16.41;31.18;99732.78;4957398;28;20041;-87
2023/04/09 10:55:52;;;;;;;3.75;2.60;;;;;;;16.53;31.84;99722.25;4964126;28;20042;-87
2023/04/09 10:58:18;;;;;;;3.03;2.33;;;;;;;16.32;31.39;99719.88;4964033;28;20554;-87
2023/04/09 11:00:47;;;;;;;3.50;2.60;;;;;;;16.09;30.95;99732.50;4963269;28;20030;-87
2023/04/09 11:03:19;;;;;;;4.43;2.58;;;;;;;16.14;30.82;99740.59;4948174;28;20030;-88
2023/04/09 11:05:48;;;;;;;5.70;2.70;;;;;;;16.21;31.08;99712.19;4980729;28;20022;-87
2023/04/09 11:08:15;;;;;;;3.67;2.75;;;;;;;16.32;30.21;99711.72;4948384;28;20034;-87
2023/04/09 11:10:43;;;;;;;4.60;2.95;;;;;;;16.33;31.03;99732.38;4963911;28;20453;-87
2023/04/09 11:13:16;;;;;;;3.72;2.58;;;;;;;16.44;29.94;99707.75;4963843;28;20030;-86
2023/04/09 11:15:42;;;;;;;5.30;2.33;;;;;;;16.36;30.62;99709.22;4980691;28;20562;-87
2023/04/09 11:18:10;;;;;;;4.25;2.30;;;;;;;16.50;30.06;99704.63;4959976;28;20046;-87
2023/04/09 11:20:37;;;;;;;3.05;2.38;;;;;;;16.59;30.00;99695.78;4949063;28;20040;-88
2023/04/09 11:23:02;;;;;;;3.67;2.72;;;;;;;16.67;29.31;99706.78;4948342;28;20030;-88
2023/04/09 11:25:30;;;;;;;3.33;2.42;;;;;;;16.71;29.35;99691.47;4974895;28;20522;-87
2023/04/09 11:27:56;;;;;;;4.10;2.90;;;;;;;16.84;29.36;99702.69;4966720;28;20041;-87
2023/04/09 11:30:21;;;;;;;4.15;2.97;;;;;;;16.92;29.27;99702.78;4966386;28;20392;-87